Decoded Metar for CYRV (REVELSTOKE AIRPO in BC, CANADA) (IATA:YRV) | Meteo·Mobile Aviation Weather
aviador You're here:

CYRV Decoded Metar

REVELSTOKE AIRPO in BC, CANADA
Report Time2019-07-19 19:00:00
UTC Time2019-07-19 19:19:42
Flight Rules vfr VFR
Wind190° at 06 kt
W.Decomp.*RWY 12: 3.5 kt HW 4.9 kt RCW
Visibility9999 m
Phenomena:N/A
Clouds:Broken 070 Hf
Broken 087 Hf
Expected CloudBase > 1,200 ft AGL from Temp-Dew spread
Ceiling7,000 ft
Temp14°C (ISA +2)
Dew Point11°C (82% RH)
AAT12.2°C
QNH1016 hPa
Density Alt1,755 ft
Elevation1,453 ft
Report Wrong Elevation
Raw Report
CYRV 191900Z AUTO 19006KT 9SM BKN070 BKN087 14/11 A3001 RMK SLP167
DENSITY ALT 1600FT=

Extra information for CYRV:More info

Metar Taf Metar & Taf Last 4 Metars F.Rules Stats Wind Profile Meteogram Temp Stats Airport Information Weather charts Add Link Nearby VenuesMetar ALERT Operation Metar Decoded Social comments